createdAt,value
2018-02-21T00:00:48.737Z,43.83
2018-02-21T00:01:52.032Z,43.28
2018-02-21T00:02:55.403Z,47.30
2018-02-21T00:03:59.161Z,42.83
2018-02-21T00:05:02.558Z,43.00
2018-02-21T00:06:07.082Z,42.20
2018-02-21T00:07:10.557Z,43.85
2018-02-21T00:08:13.889Z,46.00
2018-02-21T00:09:17.200Z,42.92
2018-02-21T00:10:20.517Z,42.33
2018-02-21T00:11:23.832Z,44.65
2018-02-21T00:12:27.190Z,43.65
2018-02-21T00:13:30.731Z,44.53
2018-02-21T00:14:33.998Z,45.03
2018-02-21T00:15:37.333Z,44.47
2018-02-21T00:16:40.692Z,44.05
2018-02-21T00:17:44.063Z,43.70
2018-02-21T00:18:47.365Z,41.35
2018-02-21T00:19:50.914Z,43.58
2018-02-21T00:20:54.261Z,46.88
2018-02-21T00:21:57.574Z,45.17
2018-02-21T00:23:00.926Z,46.53
2018-02-21T00:24:04.267Z,41.65
2018-02-21T00:25:08.390Z,39.65
2018-02-21T00:26:12.581Z,48.53
2018-02-21T00:27:15.984Z,46.13
2018-02-21T00:28:19.318Z,44.35
2018-02-21T00:29:22.633Z,44.80
2018-02-21T00:30:25.995Z,44.45
2018-02-21T00:31:29.878Z,46.80
2018-02-21T00:32:33.268Z,44.35
2018-02-21T00:33:36.645Z,47.13
2018-02-21T00:34:39.953Z,50.67
2018-02-21T00:35:43.283Z,45.67
2018-02-21T00:36:46.601Z,46.25
2018-02-21T00:37:49.952Z,41.83
2018-02-21T00:38:53.292Z,44.47
2018-02-21T00:39:56.713Z,43.87
2018-02-21T00:41:02.130Z,46.37
2018-02-21T00:42:05.486Z,42.95
2018-02-21T00:43:08.840Z,47.80
2018-02-21T00:44:13.015Z,44.55
2018-02-21T00:45:16.371Z,48.65
2018-02-21T00:46:19.697Z,45.12
2018-02-21T00:47:23.138Z,44.72
2018-02-21T00:48:26.497Z,46.47
2018-02-21T00:49:29.908Z,44.85
2018-02-21T00:50:33.281Z,44.72
2018-02-21T00:51:36.954Z,49.35
2018-02-21T00:52:40.268Z,44.72
2018-02-21T00:53:43.587Z,46.17
2018-02-21T00:54:46.960Z,41.90
2018-02-21T00:55:50.296Z,45.85
2018-02-21T00:56:53.627Z,47.50
2018-02-21T00:57:56.958Z,43.00
2018-02-21T00:59:00.277Z,45.78
2018-02-21T01:00:03.805Z,47.62
2018-02-21T01:01:07.801Z,48.70
2018-02-21T01:02:11.221Z,45.90
2018-02-21T01:03:14.621Z,43.13
2018-02-21T01:04:17.956Z,44.75
2018-02-21T01:05:21.316Z,48.70
2018-02-21T01:06:24.678Z,47.00
2018-02-21T01:07:27.995Z,46.97
2018-02-21T01:08:31.300Z,44.95
2018-02-21T01:09:34.676Z,45.47
2018-02-21T01:10:38.094Z,44.67
2018-02-21T01:11:41.489Z,43.45
2018-02-21T01:12:44.898Z,46.63
2018-02-21T01:13:48.231Z,47.85
2018-02-21T01:14:51.679Z,44.83
2018-02-21T01:15:55.035Z,44.92
2018-02-21T01:16:58.412Z,44.15
2018-02-21T01:18:01.734Z,46.88
2018-02-21T01:19:05.102Z,44.70
2018-02-21T01:20:08.425Z,44.05
2018-02-21T01:21:11.802Z,42.45
2018-02-21T01:22:15.165Z,45.90
2018-02-21T01:23:18.569Z,44.35
2018-02-21T01:24:21.973Z,44.80
2018-02-21T01:25:25.312Z,40.88
2018-02-21T01:26:28.704Z,46.30
2018-02-21T01:27:32.015Z,46.00
2018-02-21T01:28:35.340Z,43.95
2018-02-21T01:29:38.718Z,40.65
2018-02-21T01:30:42.054Z,42.70
2018-02-21T01:31:45.404Z,43.80
2018-02-21T01:32:48.840Z,43.17
2018-02-21T01:33:52.195Z,42.42
2018-02-21T01:34:55.815Z,44.55
2018-02-21T01:35:59.257Z,47.15
2018-02-21T01:37:02.680Z,45.88
2018-02-21T01:38:06.713Z,46.40
2018-02-21T01:39:10.028Z,46.85
2018-02-21T01:40:13.414Z,45.67
2018-02-21T01:41:16.743Z,48.53
2018-02-21T01:42:20.078Z,47.08
2018-02-21T01:43:23.459Z,46.72
2018-02-21T01:44:26.885Z,48.00
2018-02-21T01:45:30.240Z,43.65
2018-02-21T01:46:33.575Z,45.12
2018-02-21T01:47:36.981Z,48.25
2018-02-21T01:48:40.315Z,47.55
2018-02-21T01:49:43.745Z,49.08
2018-02-21T01:50:52.901Z,46.17
2018-02-21T01:51:56.221Z,47.60
2018-02-21T01:52:59.648Z,43.40
2018-02-21T01:54:02.994Z,47.35
2018-02-21T01:55:06.412Z,46.30
2018-02-21T01:56:09.760Z,43.25
2018-02-21T01:57:13.125Z,46.45
2018-02-21T01:58:16.468Z,47.75
2018-02-21T01:59:19.826Z,46.72
2018-02-21T02:00:23.184Z,45.92
2018-02-21T02:01:27.198Z,44.65
2018-02-21T02:02:30.598Z,46.63
2018-02-21T02:03:34.033Z,46.37
2018-02-21T02:04:37.408Z,44.10
2018-02-21T02:05:40.770Z,45.22
2018-02-21T02:06:44.125Z,44.05
2018-02-21T02:07:47.558Z,48.40
2018-02-21T02:08:51.059Z,46.28
2018-02-21T02:09:55.259Z,45.95
2018-02-21T02:10:58.641Z,45.17
2018-02-21T02:12:02.266Z,46.40
2018-02-21T02:13:05.678Z,45.28
2018-02-21T02:14:09.061Z,47.33
2018-02-21T02:15:12.395Z,45.12
2018-02-21T02:16:15.704Z,45.90
2018-02-21T02:17:19.051Z,46.10
2018-02-21T02:18:22.379Z,47.67
2018-02-21T02:19:25.761Z,46.05
2018-02-21T02:20:29.081Z,47.72
2018-02-21T02:21:32.454Z,47.75
2018-02-21T02:22:35.830Z,48.45
2018-02-21T02:23:39.185Z,42.33
2018-02-21T02:24:42.580Z,48.80
2018-02-21T02:25:46.013Z,47.40
2018-02-21T02:26:49.415Z,45.97
2018-02-21T02:27:52.822Z,48.65
2018-02-21T02:28:56.189Z,48.70
2018-02-21T02:29:59.574Z,48.33
2018-02-21T02:31:02.940Z,45.00
2018-02-21T02:32:06.326Z,47.85
2018-02-21T02:33:09.705Z,45.10
2018-02-21T02:34:13.022Z,42.35
2018-02-21T02:35:16.374Z,46.10
2018-02-21T02:36:19.702Z,49.08
2018-02-21T02:37:23.109Z,48.08
2018-02-21T02:38:38.201Z,45.33
2018-02-21T02:40:02.289Z,46.58
2018-02-21T02:41:06.489Z,44.60
2018-02-21T02:42:09.811Z,46.47
2018-02-21T02:43:13.119Z,43.97
2018-02-21T02:44:16.454Z,43.08
2018-02-21T02:45:19.868Z,46.17
2018-02-21T02:46:23.303Z,47.35
2018-02-21T02:47:26.868Z,45.50
2018-02-21T02:48:30.172Z,45.10
2018-02-21T02:49:33.553Z,48.30
2018-02-21T02:50:36.871Z,45.35
2018-02-21T02:51:40.232Z,45.17
2018-02-21T02:52:43.572Z,46.22
2018-02-21T02:53:46.912Z,45.50
2018-02-21T02:54:50.235Z,44.22
2018-02-21T02:55:53.595Z,46.65
2018-02-21T02:56:56.961Z,43.58
2018-02-21T02:58:00.315Z,45.03
2018-02-21T02:59:03.619Z,40.40
2018-02-21T03:00:06.937Z,42.50
2018-02-21T03:01:10.867Z,42.08
2018-02-21T03:02:14.219Z,42.58
2018-02-21T03:03:17.558Z,46.28
2018-02-21T03:04:20.912Z,45.97
2018-02-21T03:05:24.261Z,48.00
2018-02-21T03:06:27.636Z,45.10
2018-02-21T03:07:31.096Z,45.22
2018-02-21T03:08:34.456Z,45.60
2018-02-21T03:09:37.805Z,46.92
2018-02-21T03:10:41.125Z,41.25
2018-02-21T03:11:44.469Z,44.92
2018-02-21T03:12:47.825Z,46.30
2018-02-21T03:13:51.214Z,45.78
2018-02-21T03:14:54.605Z,46.70
2018-02-21T03:15:57.922Z,44.55
2018-02-21T03:17:01.283Z,44.05
2018-02-21T03:18:04.683Z,42.78
2018-02-21T03:19:08.016Z,41.20
2018-02-21T03:20:11.462Z,48.40
2018-02-21T03:21:14.833Z,44.45
2018-02-21T03:22:18.156Z,48.75
2018-02-21T03:23:21.579Z,45.80
2018-02-21T03:24:24.900Z,46.53
2018-02-21T03:25:28.231Z,45.40
2018-02-21T03:26:31.562Z,44.13
2018-02-21T03:27:34.963Z,44.88
2018-02-21T03:28:38.414Z,45.80
2018-02-21T03:29:41.787Z,45.85
2018-02-21T03:30:45.112Z,46.10
2018-02-21T03:31:48.439Z,47.47
2018-02-21T03:32:51.802Z,44.33
2018-02-21T03:33:55.296Z,45.35
2018-02-21T03:34:58.726Z,47.25
2018-02-21T03:36:02.215Z,44.28
2018-02-21T03:37:05.625Z,45.70
2018-02-21T03:38:09.028Z,48.65
2018-02-21T03:39:12.414Z,47.53
2018-02-21T03:40:15.738Z,46.58
2018-02-21T03:41:19.083Z,44.25
2018-02-21T03:42:22.419Z,48.65
2018-02-21T03:43:25.757Z,44.90
2018-02-21T03:44:29.162Z,47.40
2018-02-21T03:45:32.532Z,45.80
2018-02-21T03:46:35.867Z,47.75
2018-02-21T03:47:39.218Z,46.20
2018-02-21T03:48:42.553Z,39.58
2018-02-21T03:49:45.991Z,46.70
2018-02-21T03:50:49.328Z,44.20
2018-02-21T03:51:52.679Z,45.70
2018-02-21T03:52:56.013Z,44.80
2018-02-21T03:53:59.353Z,44.65
2018-02-21T03:55:02.811Z,46.20
2018-02-21T03:56:06.221Z,45.92
2018-02-21T03:57:09.633Z,45.60
2018-02-21T03:58:12.966Z,46.25
2018-02-21T03:59:16.300Z,46.55
2018-02-21T04:00:19.685Z,47.30
2018-02-21T04:01:23.086Z,45.33
2018-02-21T04:02:26.420Z,41.42
2018-02-21T04:03:29.809Z,44.28
2018-02-21T04:04:33.115Z,47.22
2018-02-21T04:05:36.496Z,37.88
2018-02-21T04:06:40.299Z,44.97
2018-02-21T04:07:43.620Z,49.22
2018-02-21T04:08:46.945Z,46.95
2018-02-21T04:09:50.292Z,44.92
2018-02-21T04:10:53.671Z,41.75
2018-02-21T04:11:57.002Z,42.65
2018-02-21T04:13:00.369Z,46.95
2018-02-21T04:14:03.778Z,47.80
2018-02-21T04:15:07.133Z,48.60
2018-02-21T04:16:10.510Z,45.75
2018-02-21T04:17:14.266Z,46.03
2018-02-21T04:18:17.593Z,48.30
2018-02-21T04:19:20.949Z,42.80
2018-02-21T04:20:24.358Z,44.22
2018-02-21T04:21:27.739Z,47.62
2018-02-21T04:22:31.095Z,48.25
2018-02-21T04:23:34.405Z,44.55
2018-02-21T04:24:37.734Z,44.33
2018-02-21T04:25:41.096Z,44.80
2018-02-21T04:26:44.515Z,44.50
2018-02-21T04:27:47.869Z,47.53
2018-02-21T04:28:51.226Z,43.30
2018-02-21T04:29:54.547Z,46.95
2018-02-21T04:30:57.874Z,49.00
2018-02-21T04:32:01.240Z,46.97
2018-02-21T04:33:04.596Z,44.53
2018-02-21T04:34:08.151Z,48.75
2018-02-21T04:35:11.473Z,48.80
2018-02-21T04:36:14.955Z,45.28
2018-02-21T04:37:18.329Z,49.08
2018-02-21T04:38:21.675Z,46.72
2018-02-21T04:39:25.012Z,48.42
2018-02-21T04:40:28.373Z,48.17
2018-02-21T04:41:31.739Z,43.13
2018-02-21T04:42:35.070Z,42.50
2018-02-21T04:43:38.480Z,48.22
2018-02-21T04:44:41.821Z,42.30
2018-02-21T04:45:45.150Z,49.22
2018-02-21T04:46:48.508Z,48.28
2018-02-21T04:47:51.868Z,50.67
2018-02-21T04:48:55.229Z,50.28
2018-02-21T04:49:58.721Z,47.83
2018-02-21T04:51:02.033Z,34.88
2018-02-21T04:52:05.351Z,48.72
2018-02-21T04:53:08.733Z,49.40
2018-02-21T04:56:08.732Z,46.40
2018-02-21T04:57:17.654Z,45.70
2018-02-21T04:58:26.693Z,51.40
2018-02-21T04:59:43.887Z,47.53
2018-02-21T05:00:47.214Z,48.25
2018-02-21T05:01:50.557Z,48.70
2018-02-21T05:02:53.882Z,48.03
2018-02-21T05:03:57.373Z,50.30
2018-02-21T05:05:00.765Z,49.03
2018-02-21T05:06:04.097Z,45.58
2018-02-21T05:07:07.439Z,50.25
2018-02-21T05:08:10.802Z,48.45
2018-02-21T05:09:14.177Z,49.80
2018-02-21T05:10:17.500Z,48.35
2018-02-21T05:11:21.130Z,41.03
2018-02-21T05:12:24.490Z,49.20
2018-02-21T05:13:27.916Z,52.80
2018-02-21T05:14:31.483Z,49.28
2018-02-21T05:15:34.967Z,43.95
2018-02-21T05:16:38.739Z,46.60
2018-02-21T05:17:42.071Z,38.65
2018-02-21T05:18:45.445Z,47.55
2018-02-21T05:19:48.901Z,49.17
2018-02-21T05:20:52.260Z,50.03
2018-02-21T05:21:55.592Z,45.05
2018-02-21T05:22:58.908Z,47.08
2018-02-21T05:24:02.281Z,49.35
2018-02-21T05:25:05.629Z,50.08
2018-02-21T05:26:08.993Z,50.35
2018-02-21T05:27:12.433Z,46.28
2018-02-21T05:28:15.813Z,48.70
2018-02-21T05:29:19.398Z,47.62
2018-02-21T05:30:22.798Z,45.20
2018-02-21T05:31:26.250Z,48.20
2018-02-21T05:32:29.562Z,48.60
2018-02-21T05:33:32.934Z,48.33
2018-02-21T05:34:37.633Z,50.50
2018-02-21T05:35:40.982Z,47.20
2018-02-21T05:36:44.448Z,52.80
2018-02-21T05:37:47.795Z,49.85
2018-02-21T05:38:51.129Z,50.08
2018-02-21T05:39:54.555Z,49.75
2018-02-21T05:40:57.936Z,48.85
2018-02-21T05:42:01.406Z,50.25
2018-02-21T05:43:04.741Z,49.47
2018-02-21T05:44:08.110Z,46.60
2018-02-21T05:45:11.436Z,49.10
2018-02-21T05:46:14.816Z,46.70
2018-02-21T05:47:18.173Z,46.75
2018-02-21T05:48:21.650Z,49.08
2018-02-21T05:49:25.012Z,45.67
2018-02-21T05:50:28.330Z,46.28
2018-02-21T05:51:31.714Z,47.50
2018-02-21T05:52:35.030Z,48.70
2018-02-21T05:53:38.387Z,49.83
2018-02-21T05:54:41.780Z,48.83
2018-02-21T05:55:45.158Z,49.50
2018-02-21T05:56:48.511Z,46.47
2018-02-21T05:57:51.847Z,47.97
2018-02-21T05:58:55.194Z,46.33
2018-02-21T05:59:58.534Z,46.80
2018-02-21T06:01:01.934Z,49.47
2018-02-21T06:02:05.639Z,47.85
2018-02-21T06:03:08.988Z,50.47
2018-02-21T06:04:12.385Z,48.85
2018-02-21T06:05:15.772Z,51.60
2018-02-21T06:06:19.114Z,48.70
2018-02-21T06:07:22.476Z,48.87
2018-02-21T06:08:25.829Z,48.28
2018-02-21T06:09:29.723Z,47.25
2018-02-21T06:10:34.022Z,49.58
2018-02-21T06:11:41.370Z,47.50
2018-02-21T06:12:44.771Z,49.13
2018-02-21T06:13:48.101Z,47.88
2018-02-21T06:14:51.431Z,47.20
2018-02-21T06:15:54.782Z,49.50
2018-02-21T06:16:58.156Z,50.65
2018-02-21T06:18:02.544Z,51.35
2018-02-21T06:19:06.106Z,49.40
2018-02-21T06:20:09.430Z,49.85
2018-02-21T06:21:12.749Z,50.03
2018-02-21T06:22:16.068Z,50.92
2018-02-21T06:23:19.430Z,48.87
2018-02-21T06:24:22.841Z,51.47
2018-02-21T06:25:26.872Z,51.53
2018-02-21T06:26:30.232Z,51.30
2018-02-21T06:27:33.551Z,51.25
2018-02-21T06:28:37.607Z,50.45
2018-02-21T06:29:40.980Z,51.13
2018-02-21T06:30:44.284Z,50.40
2018-02-21T06:31:47.617Z,49.63
2018-02-21T06:32:50.957Z,52.30
2018-02-21T06:33:54.316Z,48.72
2018-02-21T06:34:57.832Z,47.70
2018-02-21T06:36:01.188Z,49.30
2018-02-21T06:37:04.584Z,52.00
2018-02-21T06:38:08.029Z,52.90
2018-02-21T06:39:12.111Z,53.80
2018-02-21T06:40:15.449Z,53.05
2018-02-21T06:41:18.854Z,53.53
2018-02-21T06:42:22.315Z,57.10
2018-02-21T06:43:26.212Z,55.28
2018-02-21T06:44:29.572Z,55.38
2018-02-21T06:45:33.025Z,54.72
2018-02-21T06:46:36.851Z,54.97
2018-02-21T06:48:49.372Z,51.42
2018-02-21T06:49:52.831Z,55.83
2018-02-21T06:50:57.108Z,54.50
2018-02-21T06:52:00.744Z,54.17
2018-02-21T06:53:04.284Z,57.70
2018-02-21T06:54:07.702Z,56.20
2018-02-21T06:55:11.933Z,52.05
2018-02-21T06:56:16.903Z,55.08
2018-02-21T06:57:20.348Z,49.95
2018-02-21T06:58:23.736Z,53.30
2018-02-21T06:59:34.734Z,54.15
2018-02-21T07:00:38.290Z,53.90
2018-02-21T07:01:41.721Z,53.72
2018-02-21T07:02:45.119Z,54.28
2018-02-21T07:03:48.502Z,56.17
2018-02-21T07:04:51.907Z,56.03
2018-02-21T07:05:55.351Z,53.20
2018-02-21T07:06:58.730Z,54.17
2018-02-21T07:08:02.057Z,53.22
2018-02-21T07:09:05.396Z,56.63
2018-02-21T07:10:08.946Z,57.75
2018-02-21T07:11:12.390Z,52.78
2018-02-21T07:12:16.013Z,56.25
2018-02-21T07:13:19.348Z,56.47
2018-02-21T07:14:22.755Z,53.95
2018-02-21T07:15:26.188Z,55.88
2018-02-21T07:16:29.480Z,55.17
2018-02-21T07:17:32.851Z,61.17
2018-02-21T07:18:36.265Z,52.90
2018-02-21T07:19:39.676Z,57.67
2018-02-21T07:20:43.081Z,56.20
2018-02-21T07:21:46.530Z,54.80
2018-02-21T07:22:50.519Z,57.88
2018-02-21T07:23:53.846Z,57.20
2018-02-21T07:24:57.172Z,59.30
2018-02-21T07:26:01.546Z,58.25
2018-02-21T07:27:04.994Z,56.63
2018-02-21T07:28:08.468Z,58.47
2018-02-21T07:29:11.788Z,58.50
2018-02-21T07:30:15.153Z,59.00
2018-02-21T07:31:18.460Z,56.50
2018-02-21T07:32:21.815Z,59.35
2018-02-21T07:33:27.685Z,55.42
2018-02-21T07:34:31.100Z,59.83
2018-02-21T07:35:35.124Z,59.97
2018-02-21T07:36:39.518Z,57.30
2018-02-21T07:37:42.870Z,55.83
2018-02-21T07:38:46.199Z,52.10
2018-02-21T07:39:49.609Z,59.20
2018-02-21T07:40:52.950Z,57.05
2018-02-21T07:41:56.316Z,57.75
2018-02-21T07:42:59.725Z,57.55
2018-02-21T07:44:03.075Z,55.63
2018-02-21T07:45:06.395Z,60.38
2018-02-21T07:46:09.720Z,62.25
2018-02-21T07:47:13.036Z,57.83
2018-02-21T07:48:16.463Z,60.00
2018-02-21T07:49:19.778Z,57.55
2018-02-21T07:50:23.136Z,57.17
2018-02-21T07:51:26.513Z,57.78
2018-02-21T07:52:29.892Z,60.50
2018-02-21T07:53:33.348Z,57.03
2018-02-21T07:54:36.716Z,58.30
2018-02-21T07:55:40.059Z,56.45
2018-02-21T07:56:43.467Z,61.35
2018-02-21T07:57:46.779Z,60.45
2018-02-21T07:58:50.717Z,61.53
2018-02-21T07:59:54.349Z,57.78
2018-02-21T08:01:11.513Z,59.55
2018-02-21T08:02:14.907Z,58.10
2018-02-21T08:03:18.273Z,60.35
2018-02-21T08:04:25.247Z,57.05
2018-02-21T08:05:28.680Z,58.65
2018-02-21T08:06:32.072Z,57.30
2018-02-21T08:07:35.410Z,58.40
2018-02-21T08:08:38.723Z,60.05
2018-02-21T08:09:42.067Z,55.22
2018-02-21T08:10:45.437Z,58.35
2018-02-21T08:11:48.782Z,57.10
2018-02-21T08:12:52.145Z,59.40
2018-02-21T08:13:55.652Z,56.45
2018-02-21T08:14:58.994Z,59.55
2018-02-21T08:16:02.372Z,55.42
2018-02-21T08:17:05.687Z,58.10
2018-02-21T08:18:09.052Z,59.13
2018-02-21T08:19:12.475Z,58.95
2018-02-21T08:20:15.825Z,61.88
2018-02-21T08:21:19.896Z,60.50
2018-02-21T08:22:23.232Z,58.72
2018-02-21T08:23:26.544Z,57.83
2018-02-21T08:24:30.023Z,57.35
2018-02-21T08:25:33.382Z,54.42
2018-02-21T08:26:36.756Z,59.30
2018-02-21T08:27:40.089Z,57.40
2018-02-21T08:28:43.421Z,58.17
2018-02-21T08:29:46.767Z,56.17
2018-02-21T08:30:50.210Z,59.25
2018-02-21T08:31:53.640Z,57.50
2018-02-21T08:32:56.988Z,60.67
2018-02-21T08:34:00.413Z,55.65
2018-02-21T08:35:03.779Z,57.13
2018-02-21T08:36:07.178Z,58.53
2018-02-21T08:37:10.680Z,56.20
2018-02-21T08:38:14.005Z,52.08
2018-02-21T08:39:17.353Z,56.95
2018-02-21T08:40:20.733Z,59.15
2018-02-21T08:41:24.148Z,58.63
2018-02-21T08:42:27.590Z,58.17
2018-02-21T08:43:31.040Z,56.75
2018-02-21T08:44:34.387Z,55.67
2018-02-21T08:45:37.724Z,61.53
2018-02-21T08:46:41.129Z,57.10
2018-02-21T08:47:44.436Z,57.65
2018-02-21T08:48:47.823Z,59.28
2018-02-21T08:49:51.172Z,53.47
2018-02-21T08:50:55.033Z,56.15
2018-02-21T08:51:58.375Z,57.08
2018-02-21T08:53:01.688Z,57.15
2018-02-21T08:54:05.061Z,59.35
2018-02-21T08:55:08.474Z,58.33
2018-02-21T08:56:11.897Z,58.75
2018-02-21T08:57:15.250Z,60.60
2018-02-21T08:58:18.584Z,58.47
2018-02-21T08:59:21.896Z,58.87
2018-02-21T09:00:25.211Z,59.97
2018-02-21T09:01:28.557Z,59.85
2018-02-21T09:02:31.895Z,57.60
2018-02-21T09:03:35.312Z,57.25
2018-02-21T09:04:38.740Z,59.20
2018-02-21T09:05:42.215Z,58.33
2018-02-21T09:06:45.648Z,56.33
2018-02-21T09:07:48.991Z,59.80
2018-02-21T09:08:52.394Z,58.45
2018-02-21T09:09:55.763Z,55.47
2018-02-21T09:10:59.181Z,57.53
2018-02-21T09:12:02.514Z,58.63
2018-02-21T09:13:05.872Z,56.90
2018-02-21T09:14:09.237Z,55.40
2018-02-21T09:15:12.670Z,55.92
2018-02-21T09:16:15.987Z,56.55
2018-02-21T09:17:19.341Z,57.30
2018-02-21T09:18:22.677Z,57.15
2018-02-21T09:19:26.028Z,56.55
2018-02-21T09:20:29.378Z,56.67
2018-02-21T09:21:32.725Z,55.08
2018-02-21T09:22:36.054Z,54.50
2018-02-21T09:23:39.401Z,58.03
2018-02-21T09:24:42.730Z,56.63
2018-02-21T09:25:46.130Z,54.30
2018-02-21T09:26:49.474Z,55.70
2018-02-21T09:27:52.852Z,59.13
2018-02-21T09:28:56.197Z,54.10
2018-02-21T09:29:59.529Z,56.00
2018-02-21T09:31:02.913Z,56.28
2018-02-21T09:32:06.250Z,55.42
2018-02-21T09:33:09.566Z,51.55
2018-02-21T09:34:12.952Z,56.58
2018-02-21T09:35:16.496Z,53.67
2018-02-21T09:36:20.081Z,55.35
2018-02-21T09:37:23.871Z,56.85
2018-02-21T09:38:28.212Z,42.60
2018-02-21T09:39:31.652Z,50.67
2018-02-21T09:40:35.003Z,52.20
2018-02-21T09:41:38.316Z,54.50
2018-02-21T09:42:41.694Z,55.72
2018-02-21T09:43:45.034Z,54.92
2018-02-21T09:44:48.381Z,54.25
2018-02-21T09:45:51.743Z,54.10
2018-02-21T09:46:55.125Z,51.22
2018-02-21T09:47:58.452Z,52.50
2018-02-21T09:49:02.123Z,52.25
2018-02-21T09:50:05.600Z,55.92
2018-02-21T09:51:08.915Z,50.47
2018-02-21T09:52:12.364Z,51.13
2018-02-21T09:53:15.780Z,56.63
2018-02-21T09:54:19.162Z,52.72
2018-02-21T09:55:22.961Z,49.33
2018-02-21T09:56:27.007Z,51.37
2018-02-21T09:57:30.336Z,52.47
2018-02-21T09:58:33.731Z,46.92
2018-02-21T09:59:37.071Z,48.20
2018-02-21T10:00:40.563Z,51.00
2018-02-21T10:01:43.890Z,51.97
2018-02-21T10:02:47.228Z,49.35
2018-02-21T10:03:50.603Z,52.40
2018-02-21T10:04:53.935Z,50.05
2018-02-21T10:05:57.279Z,47.03
2018-02-21T10:07:00.604Z,48.65
2018-02-21T10:08:03.975Z,48.55
2018-02-21T10:09:07.367Z,49.72
2018-02-21T10:10:10.765Z,46.22
2018-02-21T10:11:14.119Z,45.17
2018-02-21T10:12:17.592Z,47.42
2018-02-21T10:13:20.933Z,46.55
2018-02-21T10:14:24.271Z,44.28
2018-02-21T10:15:27.580Z,46.92
2018-02-21T10:16:30.933Z,45.72
2018-02-21T10:17:34.344Z,47.72
2018-02-21T10:18:37.742Z,46.63
2018-02-21T10:19:41.472Z,44.22
2018-02-21T10:20:44.894Z,41.20
2018-02-21T10:21:48.268Z,40.75
2018-02-21T10:22:51.693Z,45.55
2018-02-21T10:23:55.066Z,44.22
2018-02-21T10:24:58.477Z,37.72
2018-02-21T10:26:01.805Z,37.33
2018-02-21T10:27:05.150Z,40.63
2018-02-21T10:28:08.562Z,40.75
2018-02-21T10:29:11.922Z,40.70
2018-02-21T10:30:15.341Z,40.17
2018-02-21T10:31:18.725Z,41.03
2018-02-21T10:32:22.147Z,38.97
2018-02-21T10:33:25.470Z,37.53
2018-02-21T10:34:28.848Z,40.70
2018-02-21T10:35:32.192Z,36.47
2018-02-21T10:36:35.820Z,38.63
2018-02-21T10:37:39.217Z,36.60
2018-02-21T10:38:42.554Z,38.10
2018-02-21T10:39:45.942Z,37.80
2018-02-21T10:40:49.261Z,38.60
2018-02-21T10:41:52.647Z,39.00
2018-02-21T10:42:56.001Z,37.75
2018-02-21T10:43:59.357Z,35.65
2018-02-21T10:45:02.744Z,36.45
2018-02-21T10:46:06.103Z,36.65
2018-02-21T10:47:09.453Z,36.63
2018-02-21T10:48:12.799Z,31.55
2018-02-21T10:49:16.248Z,30.30
2018-02-21T10:50:19.669Z,30.65
2018-02-21T10:51:23.025Z,36.97
2018-02-21T10:52:26.437Z,34.25
2018-02-21T10:53:31.567Z,34.85
2018-02-21T10:54:34.894Z,35.53
2018-02-21T10:55:38.211Z,33.65
2018-02-21T10:56:41.532Z,36.67
2018-02-21T10:57:44.955Z,33.42
2018-02-21T10:58:48.308Z,37.55
2018-02-21T10:59:51.616Z,35.90
2018-02-21T11:01:00.500Z,34.00
2018-02-21T11:02:04.200Z,32.45
2018-02-21T11:03:07.556Z,35.03
2018-02-21T11:04:10.995Z,35.22
2018-02-21T11:05:14.417Z,34.08
2018-02-21T11:06:17.753Z,35.75
2018-02-21T11:07:21.079Z,34.88
2018-02-21T11:08:24.396Z,31.12
2018-02-21T11:09:27.782Z,34.38
2018-02-21T11:10:31.093Z,32.20
2018-02-21T11:11:34.402Z,29.80
2018-02-21T11:12:37.710Z,34.67
2018-02-21T11:13:41.040Z,33.15
2018-02-21T11:14:44.404Z,34.58
2018-02-21T11:15:47.702Z,35.33
2018-02-21T11:16:51.079Z,32.58
2018-02-21T11:17:54.377Z,36.50
2018-02-21T11:18:57.701Z,39.05
2018-02-21T11:20:01.932Z,37.10
2018-02-21T11:21:05.233Z,33.83
2018-02-21T11:22:08.615Z,36.53
2018-02-21T11:23:11.911Z,34.45
2018-02-21T11:24:15.242Z,36.20
2018-02-21T11:25:18.667Z,36.97
2018-02-21T11:26:22.058Z,30.05
2018-02-21T11:27:25.440Z,33.03
2018-02-21T11:28:28.800Z,33.78
2018-02-21T11:29:32.228Z,33.72
2018-02-21T11:30:35.719Z,32.00
2018-02-21T11:31:39.390Z,35.10
2018-02-21T11:32:42.736Z,33.25
2018-02-21T11:33:46.121Z,33.15
2018-02-21T11:34:49.481Z,32.70
2018-02-21T11:35:52.892Z,31.80
2018-02-21T11:36:56.238Z,32.33
2018-02-21T11:37:59.635Z,34.88
2018-02-21T11:39:02.955Z,32.72
2018-02-21T11:40:06.267Z,34.10
2018-02-21T11:42:36.946Z,35.45
2018-02-21T11:43:41.132Z,33.20
2018-02-21T11:44:44.442Z,34.47
2018-02-21T11:45:47.937Z,31.98
2018-02-21T11:46:51.253Z,35.60
2018-02-21T11:47:54.596Z,30.02
2018-02-21T11:48:57.922Z,34.47
2018-02-21T11:50:01.257Z,32.15
2018-02-21T11:51:04.590Z,34.42
2018-02-21T11:52:07.961Z,31.73
2018-02-21T11:53:11.329Z,37.00
2018-02-21T11:54:14.736Z,35.67
2018-02-21T11:55:18.049Z,33.15
2018-02-21T11:56:22.204Z,34.67
2018-02-21T11:57:25.521Z,35.22
2018-02-21T11:58:28.948Z,33.30
2018-02-21T11:59:32.326Z,34.28
2018-02-21T12:00:36.116Z,32.30
2018-02-21T12:01:39.540Z,33.65
2018-02-21T12:02:43.915Z,29.77
2018-02-21T12:03:47.254Z,31.55
2018-02-21T12:04:50.723Z,31.90
2018-02-21T12:05:54.025Z,33.35
2018-02-21T12:06:57.418Z,33.25
2018-02-21T12:08:00.818Z,31.90
2018-02-21T12:09:04.195Z,33.67
2018-02-21T12:10:07.518Z,31.10
2018-02-21T12:11:11.276Z,30.67
2018-02-21T12:12:14.612Z,32.85
2018-02-21T12:13:18.255Z,33.78
2018-02-21T12:14:21.599Z,32.00
2018-02-21T12:15:25.024Z,26.58
2018-02-21T12:16:28.426Z,32.72
2018-02-21T12:17:31.936Z,33.95
2018-02-21T12:18:35.297Z,28.35
2018-02-21T12:19:38.641Z,33.28
2018-02-21T12:20:42.001Z,33.22
2018-02-21T12:21:45.347Z,35.55
2018-02-21T12:22:48.717Z,33.78
2018-02-21T12:23:52.085Z,32.38
2018-02-21T12:24:55.448Z,33.03
2018-02-21T12:25:58.820Z,33.42
2018-02-21T12:27:02.175Z,30.98
2018-02-21T12:28:05.492Z,32.92
2018-02-21T12:29:08.851Z,31.50
2018-02-21T12:30:12.185Z,34.92
2018-02-21T12:31:15.512Z,32.72
2018-02-21T12:34:02.241Z,33.15
2018-02-21T12:35:05.661Z,31.10
2018-02-21T12:36:09.061Z,32.95
2018-02-21T12:37:12.637Z,36.10
2018-02-21T12:38:16.018Z,32.00
2018-02-21T12:39:24.879Z,34.28
2018-02-21T12:40:33.812Z,32.83
2018-02-21T12:41:43.087Z,28.45
2018-02-21T12:42:46.424Z,34.00
2018-02-21T12:43:49.742Z,34.42
2018-02-21T12:44:53.071Z,34.50
2018-02-21T12:45:56.411Z,30.52
2018-02-21T12:46:59.985Z,31.33
2018-02-21T12:48:03.396Z,30.50
2018-02-21T12:49:06.903Z,33.30
2018-02-21T12:50:10.529Z,19.00
2018-02-21T12:51:13.784Z,31.73
2018-02-21T12:52:18.081Z,29.10
2018-02-21T12:53:21.508Z,30.62
2018-02-21T12:54:24.952Z,32.67
2018-02-21T12:55:28.286Z,28.55
2018-02-21T12:56:31.597Z,30.30
2018-02-21T12:57:34.961Z,28.60
2018-02-21T12:58:38.599Z,29.87
2018-02-21T12:59:41.905Z,29.12
2018-02-21T13:00:45.373Z,28.08
2018-02-21T13:01:49.277Z,31.02
2018-02-21T13:02:52.647Z,30.35
2018-02-21T13:03:55.977Z,28.83
2018-02-21T13:04:59.315Z,28.45
2018-02-21T13:06:02.826Z,24.33
2018-02-21T13:07:06.260Z,28.58
2018-02-21T13:08:09.692Z,29.17
2018-02-21T13:09:13.050Z,28.38
2018-02-21T13:10:16.396Z,28.25
2018-02-21T13:11:19.744Z,26.05
2018-02-21T13:12:23.077Z,24.25
2018-02-21T13:13:26.433Z,28.62
2018-02-21T13:14:29.906Z,27.15
2018-02-21T13:15:40.144Z,25.12
2018-02-21T13:16:43.525Z,24.92
2018-02-21T13:17:46.929Z,29.02
2018-02-21T13:18:50.286Z,26.23
2018-02-21T13:19:53.620Z,27.48
2018-02-21T13:20:56.974Z,24.37
2018-02-21T13:22:00.304Z,27.23
2018-02-21T13:23:03.632Z,25.27
2018-02-21T13:24:07.032Z,24.87
2018-02-21T13:25:10.449Z,20.08
2018-02-21T13:26:13.991Z,24.50
2018-02-21T13:27:17.293Z,21.75
2018-02-21T13:28:20.623Z,24.42
2018-02-21T13:29:23.965Z,25.67
2018-02-21T13:30:27.298Z,20.45
2018-02-21T13:31:30.653Z,26.65
2018-02-21T13:32:33.976Z,25.00
2018-02-21T13:33:37.325Z,26.95
2018-02-21T13:34:41.611Z,27.77
2018-02-21T13:35:44.949Z,27.90
2018-02-21T13:36:48.282Z,27.00
2018-02-21T13:37:51.701Z,25.50
2018-02-21T13:38:55.035Z,22.20
2018-02-21T13:39:58.476Z,20.98
2018-02-21T13:41:01.851Z,22.77
2018-02-21T13:42:05.213Z,22.00
2018-02-21T13:43:08.776Z,20.95
2018-02-21T13:44:12.295Z,23.17
2018-02-21T13:45:15.627Z,23.05